sensor_id;sensor_type;location;lat;lon;timestamp;P1;durP1;ratioP1;P2;durP2;ratioP2
47529;SDS011;33272;51.922;7.730;2022-07-04T00:00:43;3.47;;;2.70;;
47529;SDS011;33272;51.922;7.730;2022-07-04T00:03:10;3.43;;;2.93;;
47529;SDS011;33272;51.922;7.730;2022-07-04T00:05:37;3.47;;;2.90;;
47529;SDS011;33272;51.922;7.730;2022-07-04T00:08:04;5.03;;;3.13;;
47529;SDS011;33272;51.922;7.730;2022-07-04T00:10:31;3.07;;;2.83;;
47529;SDS011;33272;51.922;7.730;2022-07-04T00:12:58;3.57;;;3.03;;
47529;SDS011;33272;51.922;7.730;2022-07-04T00:15:25;4.87;;;3.60;;
47529;SDS011;33272;51.922;7.730;2022-07-04T00:17:54;4.43;;;3.30;;
47529;SDS011;33272;51.922;7.730;2022-07-04T00:20:21;5.43;;;2.87;;
47529;SDS011;33272;51.922;7.730;2022-07-04T00:22:48;3.67;;;3.03;;
47529;SDS011;33272;51.922;7.730;2022-07-04T00:25:15;4.17;;;3.33;;
47529;SDS011;33272;51.922;7.730;2022-07-04T00:27:42;5.40;;;3.20;;
47529;SDS011;33272;51.922;7.730;2022-07-04T00:30:10;3.43;;;3.13;;
47529;SDS011;33272;51.922;7.730;2022-07-04T00:32:37;5.73;;;3.33;;
47529;SDS011;33272;51.922;7.730;2022-07-04T00:35:06;4.27;;;3.33;;
47529;SDS011;33272;51.922;7.730;2022-07-04T00:37:34;4.07;;;3.30;;
47529;SDS011;33272;51.922;7.730;2022-07-04T00:40:01;5.47;;;3.33;;
47529;SDS011;33272;51.922;7.730;2022-07-04T00:42:29;4.50;;;3.70;;
47529;SDS011;33272;51.922;7.730;2022-07-04T00:44:57;5.67;;;4.10;;
47529;SDS011;33272;51.922;7.730;2022-07-04T00:47:24;4.83;;;3.83;;
47529;SDS011;33272;51.922;7.730;2022-07-04T00:49:51;4.53;;;3.27;;
47529;SDS011;33272;51.922;7.730;2022-07-04T00:52:19;5.77;;;3.67;;
47529;SDS011;33272;51.922;7.730;2022-07-04T00:54:47;4.20;;;3.77;;
47529;SDS011;33272;51.922;7.730;2022-07-04T00:57:15;5.13;;;3.70;;
47529;SDS011;33272;51.922;7.730;2022-07-04T00:59:42;4.70;;;3.30;;
47529;SDS011;33272;51.922;7.730;2022-07-04T01:02:09;4.27;;;3.30;;
47529;SDS011;33272;51.922;7.730;2022-07-04T01:04:36;4.40;;;3.47;;
47529;SDS011;33272;51.922;7.730;2022-07-04T01:07:04;5.10;;;3.50;;
47529;SDS011;33272;51.922;7.730;2022-07-04T01:09:33;3.93;;;3.63;;
47529;SDS011;33272;51.922;7.730;2022-07-04T01:12:01;4.90;;;3.60;;
47529;SDS011;33272;51.922;7.730;2022-07-04T01:14:30;3.60;;;3.30;;
47529;SDS011;33272;51.922;7.730;2022-07-04T01:16:57;3.70;;;3.40;;
47529;SDS011;33272;51.922;7.730;2022-07-04T01:19:24;3.77;;;3.47;;
47529;SDS011;33272;51.922;7.730;2022-07-04T01:21:53;5.30;;;4.07;;
47529;SDS011;33272;51.922;7.730;2022-07-04T01:24:20;4.77;;;4.27;;
47529;SDS011;33272;51.922;7.730;2022-07-04T01:26:47;5.90;;;3.73;;
47529;SDS011;33272;51.922;7.730;2022-07-04T01:29:14;6.03;;;4.07;;
47529;SDS011;33272;51.922;7.730;2022-07-04T01:31:42;5.17;;;4.20;;
47529;SDS011;33272;51.922;7.730;2022-07-04T01:34:09;4.40;;;4.00;;
47529;SDS011;33272;51.922;7.730;2022-07-04T01:36:36;5.90;;;4.00;;
47529;SDS011;33272;51.922;7.730;2022-07-04T01:39:05;4.23;;;3.83;;
47529;SDS011;33272;51.922;7.730;2022-07-04T01:41:34;4.30;;;4.00;;
47529;SDS011;33272;51.922;7.730;2022-07-04T01:44:02;13.70;;;5.03;;
47529;SDS011;33272;51.922;7.730;2022-07-04T01:46:29;4.73;;;4.33;;
47529;SDS011;33272;51.922;7.730;2022-07-04T01:48:56;4.83;;;4.43;;
47529;SDS011;33272;51.922;7.730;2022-07-04T01:51:23;4.50;;;4.13;;
47529;SDS011;33272;51.922;7.730;2022-07-04T01:53:50;5.10;;;4.60;;
47529;SDS011;33272;51.922;7.730;2022-07-04T01:56:18;6.50;;;4.47;;
47529;SDS011;33272;51.922;7.730;2022-07-04T01:58:46;4.93;;;4.23;;
47529;SDS011;33272;51.922;7.730;2022-07-04T02:01:13;5.00;;;4.50;;
47529;SDS011;33272;51.922;7.730;2022-07-04T02:03:57;7.03;;;4.90;;
47529;SDS011;33272;51.922;7.730;2022-07-04T02:06:25;5.23;;;4.63;;
47529;SDS011;33272;51.922;7.730;2022-07-04T02:08:52;5.37;;;4.80;;
47529;SDS011;33272;51.922;7.730;2022-07-04T02:11:38;4.73;;;4.33;;
47529;SDS011;33272;51.922;7.730;2022-07-04T02:14:23;5.30;;;4.70;;
47529;SDS011;33272;51.922;7.730;2022-07-04T02:16:50;5.17;;;4.77;;
47529;SDS011;33272;51.922;7.730;2022-07-04T02:19:18;5.40;;;4.70;;
47529;SDS011;33272;51.922;7.730;2022-07-04T02:21:45;5.80;;;4.37;;
47529;SDS011;33272;51.922;7.730;2022-07-04T02:24:12;5.63;;;5.00;;
47529;SDS011;33272;51.922;7.730;2022-07-04T02:26:40;6.13;;;5.10;;
47529;SDS011;33272;51.922;7.730;2022-07-04T02:29:07;5.83;;;5.20;;
47529;SDS011;33272;51.922;7.730;2022-07-04T02:31:34;6.97;;;5.67;;
47529;SDS011;33272;51.922;7.730;2022-07-04T02:34:02;6.47;;;5.77;;
47529;SDS011;33272;51.922;7.730;2022-07-04T02:36:29;6.17;;;5.37;;
47529;SDS011;33272;51.922;7.730;2022-07-04T02:38:56;6.97;;;5.90;;
47529;SDS011;33272;51.922;7.730;2022-07-04T02:41:23;6.90;;;6.20;;
47529;SDS011;33272;51.922;7.730;2022-07-04T02:43:51;6.77;;;5.83;;
47529;SDS011;33272;51.922;7.730;2022-07-04T02:46:18;6.53;;;5.93;;
47529;SDS011;33272;51.922;7.730;2022-07-04T02:48:45;6.43;;;5.83;;
47529;SDS011;33272;51.922;7.730;2022-07-04T02:51:13;6.50;;;6.00;;
47529;SDS011;33272;51.922;7.730;2022-07-04T02:53:40;7.77;;;6.00;;
47529;SDS011;33272;51.922;7.730;2022-07-04T02:56:07;6.53;;;5.80;;
47529;SDS011;33272;51.922;7.730;2022-07-04T02:58:34;8.87;;;5.90;;
47529;SDS011;33272;51.922;7.730;2022-07-04T03:01:03;6.70;;;5.43;;
47529;SDS011;33272;51.922;7.730;2022-07-04T03:03:30;7.87;;;5.47;;
47529;SDS011;33272;51.922;7.730;2022-07-04T03:05:57;6.00;;;5.40;;
47529;SDS011;33272;51.922;7.730;2022-07-04T03:08:24;6.20;;;5.13;;
47529;SDS011;33272;51.922;7.730;2022-07-04T03:10:51;5.90;;;5.30;;
47529;SDS011;33272;51.922;7.730;2022-07-04T03:13:18;6.70;;;5.37;;
47529;SDS011;33272;51.922;7.730;2022-07-04T03:15:45;5.17;;;4.63;;
47529;SDS011;33272;51.922;7.730;2022-07-04T03:18:14;5.97;;;5.37;;
47529;SDS011;33272;51.922;7.730;2022-07-04T03:20:41;5.53;;;5.03;;
47529;SDS011;33272;51.922;7.730;2022-07-04T03:23:08;7.17;;;5.73;;
47529;SDS011;33272;51.922;7.730;2022-07-04T03:25:36;5.97;;;5.17;;
47529;SDS011;33272;51.922;7.730;2022-07-04T03:28:03;7.13;;;5.80;;
47529;SDS011;33272;51.922;7.730;2022-07-04T03:30:30;6.00;;;5.50;;
47529;SDS011;33272;51.922;7.730;2022-07-04T03:32:57;6.93;;;6.07;;
47529;SDS011;33272;51.922;7.730;2022-07-04T03:35:26;6.47;;;5.87;;
47529;SDS011;33272;51.922;7.730;2022-07-04T03:37:53;8.53;;;6.20;;
47529;SDS011;33272;51.922;7.730;2022-07-04T03:40:21;6.40;;;5.80;;
47529;SDS011;33272;51.922;7.730;2022-07-04T03:42:49;7.07;;;6.37;;
47529;SDS011;33272;51.922;7.730;2022-07-04T03:45:16;6.93;;;5.67;;
47529;SDS011;33272;51.922;7.730;2022-07-04T03:47:43;6.17;;;5.67;;
47529;SDS011;33272;51.922;7.730;2022-07-04T03:50:10;5.90;;;5.40;;
47529;SDS011;33272;51.922;7.730;2022-07-04T03:52:39;6.10;;;5.50;;
47529;SDS011;33272;51.922;7.730;2022-07-04T03:55:06;6.23;;;5.43;;
47529;SDS011;33272;51.922;7.730;2022-07-04T03:57:34;6.33;;;5.43;;
47529;SDS011;33272;51.922;7.730;2022-07-04T04:00:02;7.43;;;5.57;;
47529;SDS011;33272;51.922;7.730;2022-07-04T04:02:30;6.00;;;4.83;;
47529;SDS011;33272;51.922;7.730;2022-07-04T04:04:57;6.47;;;5.20;;
47529;SDS011;33272;51.922;7.730;2022-07-04T04:07:42;6.13;;;5.47;;
47529;SDS011;33272;51.922;7.730;2022-07-04T04:10:10;6.03;;;5.50;;
47529;SDS011;33272;51.922;7.730;2022-07-04T04:12:37;6.17;;;5.50;;
47529;SDS011;33272;51.922;7.730;2022-07-04T04:15:05;7.17;;;5.70;;
47529;SDS011;33272;51.922;7.730;2022-07-04T04:17:34;6.47;;;5.00;;
47529;SDS011;33272;51.922;7.730;2022-07-04T04:20:01;6.33;;;5.73;;
47529;SDS011;33272;51.922;7.730;2022-07-04T04:22:29;8.23;;;5.60;;
47529;SDS011;33272;51.922;7.730;2022-07-04T04:24:57;6.03;;;5.40;;
47529;SDS011;33272;51.922;7.730;2022-07-04T04:27:24;5.53;;;4.70;;
47529;SDS011;33272;51.922;7.730;2022-07-04T04:29:52;6.23;;;5.17;;
47529;SDS011;33272;51.922;7.730;2022-07-04T04:32:19;6.37;;;5.07;;
47529;SDS011;33272;51.922;7.730;2022-07-04T04:34:46;4.97;;;4.57;;
47529;SDS011;33272;51.922;7.730;2022-07-04T04:37:14;5.03;;;4.53;;
47529;SDS011;33272;51.922;7.730;2022-07-04T04:39:41;5.07;;;4.60;;
47529;SDS011;33272;51.922;7.730;2022-07-04T04:42:09;5.90;;;4.63;;
47529;SDS011;33272;51.922;7.730;2022-07-04T04:44:36;4.77;;;4.37;;
47529;SDS011;33272;51.922;7.730;2022-07-04T04:47:03;5.00;;;4.47;;
47529;SDS011;33272;51.922;7.730;2022-07-04T04:49:30;4.90;;;4.50;;
47529;SDS011;33272;51.922;7.730;2022-07-04T04:51:57;5.70;;;4.50;;
47529;SDS011;33272;51.922;7.730;2022-07-04T04:54:24;6.53;;;4.43;;
47529;SDS011;33272;51.922;7.730;2022-07-04T04:56:51;6.27;;;4.87;;
47529;SDS011;33272;51.922;7.730;2022-07-04T04:59:20;5.53;;;4.83;;
47529;SDS011;33272;51.922;7.730;2022-07-04T05:01:47;4.77;;;4.37;;
47529;SDS011;33272;51.922;7.730;2022-07-04T05:04:14;6.67;;;5.10;;
47529;SDS011;33272;51.922;7.730;2022-07-04T05:06:42;5.17;;;4.63;;
47529;SDS011;33272;51.922;7.730;2022-07-04T05:09:09;5.20;;;4.70;;
47529;SDS011;33272;51.922;7.730;2022-07-04T05:11:36;6.93;;;4.70;;
47529;SDS011;33272;51.922;7.730;2022-07-04T05:14:03;8.60;;;4.73;;
47529;SDS011;33272;51.922;7.730;2022-07-04T05:16:31;5.50;;;4.73;;
47529;SDS011;33272;51.922;7.730;2022-07-04T05:18:59;5.10;;;4.60;;
47529;SDS011;33272;51.922;7.730;2022-07-04T05:21:27;6.93;;;4.97;;
47529;SDS011;33272;51.922;7.730;2022-07-04T05:23:54;5.20;;;4.70;;
47529;SDS011;33272;51.922;7.730;2022-07-04T05:26:21;5.87;;;4.47;;
47529;SDS011;33272;51.922;7.730;2022-07-04T05:28:48;5.87;;;4.60;;
47529;SDS011;33272;51.922;7.730;2022-07-04T05:31:15;5.00;;;4.60;;
47529;SDS011;33272;51.922;7.730;2022-07-04T05:33:44;6.03;;;4.20;;
47529;SDS011;33272;51.922;7.730;2022-07-04T05:36:11;4.47;;;4.07;;
47529;SDS011;33272;51.922;7.730;2022-07-04T05:38:38;5.80;;;4.33;;
47529;SDS011;33272;51.922;7.730;2022-07-04T05:41:05;6.27;;;4.20;;
47529;SDS011;33272;51.922;7.730;2022-07-04T05:43:32;6.83;;;4.30;;
47529;SDS011;33272;51.922;7.730;2022-07-04T05:45:59;3.63;;;3.33;;
47529;SDS011;33272;51.922;7.730;2022-07-04T05:48:26;6.07;;;4.13;;
47529;SDS011;33272;51.922;7.730;2022-07-04T05:50:54;5.00;;;3.90;;
47529;SDS011;33272;51.922;7.730;2022-07-04T05:53:22;3.63;;;3.07;;
47529;SDS011;33272;51.922;7.730;2022-07-04T05:55:49;4.17;;;2.90;;
47529;SDS011;33272;51.922;7.730;2022-07-04T05:58:16;5.20;;;3.10;;
47529;SDS011;33272;51.922;7.730;2022-07-04T06:00:43;5.27;;;2.93;;
47529;SDS011;33272;51.922;7.730;2022-07-04T06:03:10;3.93;;;3.43;;
47529;SDS011;33272;51.922;7.730;2022-07-04T06:05:37;5.23;;;2.93;;
47529;SDS011;33272;51.922;7.730;2022-07-04T06:08:05;4.60;;;3.70;;
47529;SDS011;33272;51.922;7.730;2022-07-04T06:10:33;3.37;;;2.90;;
47529;SDS011;33272;51.922;7.730;2022-07-04T06:13:00;3.60;;;3.30;;
47529;SDS011;33272;51.922;7.730;2022-07-04T06:15:27;4.17;;;2.93;;
47529;SDS011;33272;51.922;7.730;2022-07-04T06:17:54;5.63;;;3.10;;
47529;SDS011;33272;51.922;7.730;2022-07-04T06:20:21;5.47;;;3.20;;
47529;SDS011;33272;51.922;7.730;2022-07-04T06:22:48;5.07;;;2.87;;
47529;SDS011;33272;51.922;7.730;2022-07-04T06:25:18;3.33;;;3.03;;
47529;SDS011;33272;51.922;7.730;2022-07-04T06:27:46;6.30;;;2.90;;
47529;SDS011;33272;51.922;7.730;2022-07-04T06:30:16;4.27;;;2.67;;
47529;SDS011;33272;51.922;7.730;2022-07-04T06:32:44;5.43;;;2.87;;
47529;SDS011;33272;51.922;7.730;2022-07-04T06:35:12;3.50;;;2.27;;
47529;SDS011;33272;51.922;7.730;2022-07-04T06:38:00;2.77;;;2.30;;
47529;SDS011;33272;51.922;7.730;2022-07-04T06:40:29;3.90;;;1.97;;
47529;SDS011;33272;51.922;7.730;2022-07-04T06:42:56;3.87;;;2.57;;
47529;SDS011;33272;51.922;7.730;2022-07-04T06:45:23;3.87;;;2.63;;
47529;SDS011;33272;51.922;7.730;2022-07-04T06:47:50;4.33;;;2.20;;
47529;SDS011;33272;51.922;7.730;2022-07-04T06:50:17;3.60;;;2.00;;
47529;SDS011;33272;51.922;7.730;2022-07-04T06:52:45;3.70;;;1.97;;
47529;SDS011;33272;51.922;7.730;2022-07-04T06:55:12;5.53;;;1.77;;
47529;SDS011;33272;51.922;7.730;2022-07-04T06:57:41;3.93;;;1.73;;
47529;SDS011;33272;51.922;7.730;2022-07-04T07:00:08;3.07;;;1.97;;
47529;SDS011;33272;51.922;7.730;2022-07-04T07:02:36;5.47;;;2.43;;
47529;SDS011;33272;51.922;7.730;2022-07-04T07:05:04;3.20;;;1.77;;
47529;SDS011;33272;51.922;7.730;2022-07-04T07:07:32;4.50;;;1.50;;
47529;SDS011;33272;51.922;7.730;2022-07-04T07:09:59;5.70;;;1.83;;
47529;SDS011;33272;51.922;7.730;2022-07-04T07:12:28;5.23;;;2.40;;
47529;SDS011;33272;51.922;7.730;2022-07-04T07:14:56;3.00;;;1.83;;
47529;SDS011;33272;51.922;7.730;2022-07-04T07:17:24;3.30;;;1.30;;
47529;SDS011;33272;51.922;7.730;2022-07-04T07:19:51;3.43;;;1.73;;
47529;SDS011;33272;51.922;7.730;2022-07-04T07:22:19;3.10;;;1.70;;
47529;SDS011;33272;51.922;7.730;2022-07-04T07:24:46;3.80;;;1.63;;
47529;SDS011;33272;51.922;7.730;2022-07-04T07:27:13;3.27;;;2.00;;
47529;SDS011;33272;51.922;7.730;2022-07-04T07:29:40;3.37;;;1.90;;
47529;SDS011;33272;51.922;7.730;2022-07-04T07:32:09;4.20;;;1.73;;
47529;SDS011;33272;51.922;7.730;2022-07-04T07:34:36;3.33;;;1.63;;
47529;SDS011;33272;51.922;7.730;2022-07-04T07:37:03;3.70;;;1.27;;
47529;SDS011;33272;51.922;7.730;2022-07-04T07:39:30;3.17;;;1.70;;
47529;SDS011;33272;51.922;7.730;2022-07-04T07:41:57;3.03;;;1.67;;
47529;SDS011;33272;51.922;7.730;2022-07-04T07:44:24;3.00;;;1.90;;
47529;SDS011;33272;51.922;7.730;2022-07-04T07:46:51;3.30;;;1.63;;
47529;SDS011;33272;51.922;7.730;2022-07-04T07:49:20;3.70;;;1.70;;
47529;SDS011;33272;51.922;7.730;2022-07-04T07:51:47;2.23;;;1.50;;
47529;SDS011;33272;51.922;7.730;2022-07-04T07:54:14;3.13;;;1.90;;
47529;SDS011;33272;51.922;7.730;2022-07-04T07:56:42;2.70;;;1.53;;
47529;SDS011;33272;51.922;7.730;2022-07-04T07:59:09;4.03;;;1.83;;
47529;SDS011;33272;51.922;7.730;2022-07-04T08:01:36;3.40;;;2.10;;
47529;SDS011;33272;51.922;7.730;2022-07-04T08:04:03;3.57;;;1.87;;
47529;SDS011;33272;51.922;7.730;2022-07-04T08:06:50;1.93;;;1.50;;
47529;SDS011;33272;51.922;7.730;2022-07-04T08:09:17;3.97;;;2.10;;
47529;SDS011;33272;51.922;7.730;2022-07-04T08:11:44;4.47;;;2.10;;
47529;SDS011;33272;51.922;7.730;2022-07-04T08:14:11;3.67;;;2.30;;
47529;SDS011;33272;51.922;7.730;2022-07-04T08:16:39;3.33;;;1.60;;
47529;SDS011;33272;51.922;7.730;2022-07-04T08:19:06;2.03;;;1.30;;
47529;SDS011;33272;51.922;7.730;2022-07-04T08:21:33;3.03;;;1.70;;
47529;SDS011;33272;51.922;7.730;2022-07-04T08:24:02;2.33;;;1.80;;
47529;SDS011;33272;51.922;7.730;2022-07-04T08:26:29;3.93;;;1.80;;
47529;SDS011;33272;51.922;7.730;2022-07-04T08:28:56;1.83;;;1.47;;
47529;SDS011;33272;51.922;7.730;2022-07-04T08:31:24;3.20;;;1.70;;
47529;SDS011;33272;51.922;7.730;2022-07-04T08:33:52;3.53;;;1.67;;
47529;SDS011;33272;51.922;7.730;2022-07-04T08:36:19;3.40;;;1.60;;
47529;SDS011;33272;51.922;7.730;2022-07-04T08:38:46;2.27;;;1.03;;
47529;SDS011;33272;51.922;7.730;2022-07-04T08:41:16;7.37;;;2.13;;
47529;SDS011;33272;51.922;7.730;2022-07-04T08:43:44;2.43;;;1.40;;
47529;SDS011;33272;51.922;7.730;2022-07-04T08:46:15;2.93;;;1.47;;
47529;SDS011;33272;51.922;7.730;2022-07-04T08:48:47;2.27;;;1.60;;
47529;SDS011;33272;51.922;7.730;2022-07-04T08:51:20;3.23;;;1.40;;
47529;SDS011;33272;51.922;7.730;2022-07-04T08:53:56;2.73;;;1.40;;
47529;SDS011;33272;51.922;7.730;2022-07-04T08:56:25;2.80;;;1.70;;
47529;SDS011;33272;51.922;7.730;2022-07-04T08:59:11;1.87;;;1.30;;
47529;SDS011;33272;51.922;7.730;2022-07-04T09:01:40;3.20;;;1.40;;
47529;SDS011;33272;51.922;7.730;2022-07-04T09:04:09;2.90;;;1.70;;
47529;SDS011;33272;51.922;7.730;2022-07-04T09:06:37;4.50;;;1.47;;
47529;SDS011;33272;51.922;7.730;2022-07-04T09:09:06;5.63;;;1.47;;
47529;SDS011;33272;51.922;7.730;2022-07-04T09:11:35;1.47;;;1.37;;
47529;SDS011;33272;51.922;7.730;2022-07-04T09:14:02;3.53;;;1.47;;
47529;SDS011;33272;51.922;7.730;2022-07-04T09:16:29;3.60;;;1.70;;
47529;SDS011;33272;51.922;7.730;2022-07-04T09:18:56;1.40;;;1.20;;
47529;SDS011;33272;51.922;7.730;2022-07-04T09:21:41;2.10;;;1.20;;
47529;SDS011;33272;51.922;7.730;2022-07-04T09:24:10;2.13;;;1.30;;
47529;SDS011;33272;51.922;7.730;2022-07-04T09:26:41;1.60;;;1.00;;
47529;SDS011;33272;51.922;7.730;2022-07-04T09:29:11;3.07;;;1.30;;
47529;SDS011;33272;51.922;7.730;2022-07-04T09:31:40;2.10;;;0.80;;
47529;SDS011;33272;51.922;7.730;2022-07-04T09:34:07;2.53;;;1.10;;
47529;SDS011;33272;51.922;7.730;2022-07-04T09:36:38;3.03;;;1.10;;
47529;SDS011;33272;51.922;7.730;2022-07-04T09:39:08;1.73;;;1.20;;
47529;SDS011;33272;51.922;7.730;2022-07-04T09:41:56;3.73;;;1.30;;
47529;SDS011;33272;51.922;7.730;2022-07-04T09:44:25;1.57;;;1.07;;
47529;SDS011;33272;51.922;7.730;2022-07-04T09:46:54;3.30;;;1.30;;
47529;SDS011;33272;51.922;7.730;2022-07-04T09:49:22;3.13;;;1.00;;
47529;SDS011;33272;51.922;7.730;2022-07-04T09:51:50;2.80;;;1.00;;
47529;SDS011;33272;51.922;7.730;2022-07-04T09:54:20;3.73;;;1.07;;
47529;SDS011;33272;51.922;7.730;2022-07-04T09:56:52;2.53;;;1.13;;
47529;SDS011;33272;51.922;7.730;2022-07-04T09:59:22;3.00;;;1.33;;
47529;SDS011;33272;51.922;7.730;2022-07-04T10:01:52;6.50;;;1.50;;
47529;SDS011;33272;51.922;7.730;2022-07-04T10:04:44;2.73;;;1.10;;
47529;SDS011;33272;51.922;7.730;2022-07-04T10:07:29;2.83;;;1.70;;
47529;SDS011;33272;51.922;7.730;2022-07-04T10:09:58;2.10;;;1.00;;
47529;SDS011;33272;51.922;7.730;2022-07-04T10:12:25;2.93;;;1.03;;
47529;SDS011;33272;51.922;7.730;2022-07-04T10:14:55;2.23;;;1.10;;
47529;SDS011;33272;51.922;7.730;2022-07-04T10:17:22;1.90;;;1.30;;
47529;SDS011;33272;51.922;7.730;2022-07-04T10:19:49;2.67;;;1.23;;
47529;SDS011;33272;51.922;7.730;2022-07-04T10:22:18;1.07;;;0.97;;
47529;SDS011;33272;51.922;7.730;2022-07-04T10:24:48;1.73;;;0.90;;
47529;SDS011;33272;51.922;7.730;2022-07-04T10:27:16;2.33;;;1.50;;
47529;SDS011;33272;51.922;7.730;2022-07-04T10:29:43;4.07;;;1.23;;
47529;SDS011;33272;51.922;7.730;2022-07-04T10:32:12;1.17;;;0.93;;
47529;SDS011;33272;51.922;7.730;2022-07-04T10:34:40;2.77;;;0.90;;
47529;SDS011;33272;51.922;7.730;2022-07-04T10:37:07;2.53;;;1.37;;
47529;SDS011;33272;51.922;7.730;2022-07-04T10:39:34;2.17;;;0.90;;
47529;SDS011;33272;51.922;7.730;2022-07-04T10:42:02;1.83;;;0.90;;
47529;SDS011;33272;51.922;7.730;2022-07-04T10:44:31;2.37;;;0.90;;
47529;SDS011;33272;51.922;7.730;2022-07-04T10:47:02;2.50;;;1.10;;
47529;SDS011;33272;51.922;7.730;2022-07-04T10:49:32;2.13;;;0.93;;
47529;SDS011;33272;51.922;7.730;2022-07-04T10:52:07;1.37;;;0.90;;
47529;SDS011;33272;51.922;7.730;2022-07-04T10:54:39;1.20;;;0.93;;
47529;SDS011;33272;51.922;7.730;2022-07-04T10:57:09;2.37;;;1.30;;
47529;SDS011;33272;51.922;7.730;2022-07-04T10:59:40;1.37;;;1.00;;
47529;SDS011;33272;51.922;7.730;2022-07-04T11:02:21;3.27;;;0.93;;
47529;SDS011;33272;51.922;7.730;2022-07-04T11:04:56;1.17;;;0.80;;
47529;SDS011;33272;51.922;7.730;2022-07-04T11:10:30;1.57;;;0.90;;
47529;SDS011;33272;51.922;7.730;2022-07-04T11:13:05;1.50;;;0.97;;
47529;SDS011;33272;51.922;7.730;2022-07-04T11:16:00;0.93;;;0.80;;
47529;SDS011;33272;51.922;7.730;2022-07-04T11:18:39;1.53;;;1.10;;
47529;SDS011;33272;51.922;7.730;2022-07-04T11:21:19;1.33;;;0.90;;
47529;SDS011;33272;51.922;7.730;2022-07-04T11:23:53;1.47;;;1.00;;
47529;SDS011;33272;51.922;7.730;2022-07-04T11:26:22;2.57;;;0.90;;
47529;SDS011;33272;51.922;7.730;2022-07-04T11:28:50;1.30;;;1.00;;
47529;SDS011;33272;51.922;7.730;2022-07-04T11:31:17;1.23;;;0.90;;
47529;SDS011;33272;51.922;7.730;2022-07-04T11:33:45;3.13;;;1.00;;
47529;SDS011;33272;51.922;7.730;2022-07-04T11:36:13;0.93;;;0.83;;
47529;SDS011;33272;51.922;7.730;2022-07-04T11:38:49;1.83;;;0.93;;
47529;SDS011;33272;51.922;7.730;2022-07-04T11:41:21;2.23;;;1.00;;
47529;SDS011;33272;51.922;7.730;2022-07-04T11:44:08;2.50;;;1.00;;
47529;SDS011;33272;51.922;7.730;2022-07-04T11:47:02;3.47;;;1.30;;
47529;SDS011;33272;51.922;7.730;2022-07-04T11:49:39;1.20;;;1.00;;
47529;SDS011;33272;51.922;7.730;2022-07-04T11:52:10;3.50;;;0.90;;
47529;SDS011;33272;51.922;7.730;2022-07-04T11:54:39;2.33;;;1.10;;
47529;SDS011;33272;51.922;7.730;2022-07-04T11:57:08;1.07;;;0.87;;
47529;SDS011;33272;51.922;7.730;2022-07-04T11:59:37;1.77;;;1.13;;
47529;SDS011;33272;51.922;7.730;2022-07-04T12:02:13;1.33;;;0.80;;
47529;SDS011;33272;51.922;7.730;2022-07-04T12:04:42;1.47;;;1.10;;
47529;SDS011;33272;51.922;7.730;2022-07-04T12:07:11;2.60;;;1.13;;
47529;SDS011;33272;51.922;7.730;2022-07-04T12:09:41;2.27;;;1.20;;
47529;SDS011;33272;51.922;7.730;2022-07-04T12:12:10;1.50;;;0.87;;
47529;SDS011;33272;51.922;7.730;2022-07-04T12:14:37;2.37;;;0.93;;
47529;SDS011;33272;51.922;7.730;2022-07-04T12:17:08;1.40;;;0.83;;
47529;SDS011;33272;51.922;7.730;2022-07-04T12:19:48;1.90;;;0.90;;
47529;SDS011;33272;51.922;7.730;2022-07-04T12:25:18;1.50;;;1.40;;
47529;SDS011;33272;51.922;7.730;2022-07-04T12:27:53;3.40;;;1.20;;
47529;SDS011;33272;51.922;7.730;2022-07-04T12:30:22;2.57;;;1.07;;
47529;SDS011;33272;51.922;7.730;2022-07-04T12:32:50;1.27;;;0.90;;
47529;SDS011;33272;51.922;7.730;2022-07-04T12:38:13;2.47;;;1.10;;
47529;SDS011;33272;51.922;7.730;2022-07-04T12:40:55;2.37;;;1.17;;
47529;SDS011;33272;51.922;7.730;2022-07-04T12:43:25;1.53;;;1.00;;
47529;SDS011;33272;51.922;7.730;2022-07-04T12:46:11;1.70;;;0.90;;
47529;SDS011;33272;51.922;7.730;2022-07-04T12:48:41;1.40;;;1.00;;
47529;SDS011;33272;51.922;7.730;2022-07-04T12:51:09;1.00;;;0.90;;
47529;SDS011;33272;51.922;7.730;2022-07-04T12:53:40;1.33;;;0.90;;
47529;SDS011;33272;51.922;7.730;2022-07-04T12:56:26;1.57;;;1.10;;
47529;SDS011;33272;51.922;7.730;2022-07-04T12:58:56;1.60;;;1.07;;
47529;SDS011;33272;51.922;7.730;2022-07-04T13:01:23;2.37;;;1.30;;
47529;SDS011;33272;51.922;7.730;2022-07-04T13:03:51;2.77;;;1.10;;
47529;SDS011;33272;51.922;7.730;2022-07-04T13:06:18;2.93;;;1.00;;
47529;SDS011;33272;51.922;7.730;2022-07-04T13:08:45;1.90;;;1.07;;
47529;SDS011;33272;51.922;7.730;2022-07-04T13:11:14;1.93;;;1.30;;
47529;SDS011;33272;51.922;7.730;2022-07-04T13:13:58;2.00;;;1.00;;
47529;SDS011;33272;51.922;7.730;2022-07-04T13:16:26;2.27;;;1.13;;
47529;SDS011;33272;51.922;7.730;2022-07-04T13:18:53;3.73;;;1.47;;
47529;SDS011;33272;51.922;7.730;2022-07-04T13:21:20;1.70;;;1.00;;
47529;SDS011;33272;51.922;7.730;2022-07-04T13:23:47;1.73;;;1.20;;
47529;SDS011;33272;51.922;7.730;2022-07-04T13:26:15;2.23;;;1.60;;
47529;SDS011;33272;51.922;7.730;2022-07-04T13:28:42;3.07;;;1.20;;
47529;SDS011;33272;51.922;7.730;2022-07-04T13:31:10;2.60;;;1.17;;
47529;SDS011;33272;51.922;7.730;2022-07-04T13:33:37;2.13;;;0.80;;
47529;SDS011;33272;51.922;7.730;2022-07-04T13:36:04;1.93;;;1.00;;
47529;SDS011;33272;51.922;7.730;2022-07-04T13:38:31;3.10;;;1.50;;
47529;SDS011;33272;51.922;7.730;2022-07-04T13:40:58;3.10;;;0.90;;
47529;SDS011;33272;51.922;7.730;2022-07-04T13:43:27;2.77;;;1.00;;
47529;SDS011;33272;51.922;7.730;2022-07-04T13:45:55;2.53;;;1.03;;
47529;SDS011;33272;51.922;7.730;2022-07-04T13:48:22;2.93;;;1.20;;
47529;SDS011;33272;51.922;7.730;2022-07-04T13:50:50;2.60;;;1.30;;
47529;SDS011;33272;51.922;7.730;2022-07-04T13:53:17;3.13;;;1.27;;
47529;SDS011;33272;51.922;7.730;2022-07-04T13:55:45;3.17;;;1.20;;
47529;SDS011;33272;51.922;7.730;2022-07-04T13:58:12;1.70;;;1.10;;
47529;SDS011;33272;51.922;7.730;2022-07-04T14:00:41;2.63;;;1.70;;
47529;SDS011;33272;51.922;7.730;2022-07-04T14:03:10;2.93;;;1.10;;
47529;SDS011;33272;51.922;7.730;2022-07-04T14:05:38;3.73;;;1.40;;
47529;SDS011;33272;51.922;7.730;2022-07-04T14:08:07;1.67;;;1.07;;
47529;SDS011;33272;51.922;7.730;2022-07-04T14:10:34;2.47;;;1.13;;
47529;SDS011;33272;51.922;7.730;2022-07-04T14:13:02;2.00;;;0.93;;
47529;SDS011;33272;51.922;7.730;2022-07-04T14:15:29;1.87;;;1.27;;
47529;SDS011;33272;51.922;7.730;2022-07-04T14:17:57;3.67;;;1.13;;
47529;SDS011;33272;51.922;7.730;2022-07-04T14:20:24;1.43;;;1.20;;
47529;SDS011;33272;51.922;7.730;2022-07-04T14:22:52;3.67;;;1.27;;
47529;SDS011;33272;51.922;7.730;2022-07-04T14:25:24;1.73;;;1.20;;
47529;SDS011;33272;51.922;7.730;2022-07-04T14:27:52;1.80;;;1.30;;
47529;SDS011;33272;51.922;7.730;2022-07-04T14:30:20;3.83;;;1.20;;
47529;SDS011;33272;51.922;7.730;2022-07-04T14:32:47;3.70;;;1.33;;
47529;SDS011;33272;51.922;7.730;2022-07-04T14:35:16;4.57;;;1.40;;
47529;SDS011;33272;51.922;7.730;2022-07-04T14:37:44;1.30;;;1.00;;
47529;SDS011;33272;51.922;7.730;2022-07-04T14:40:11;3.20;;;1.07;;
47529;SDS011;33272;51.922;7.730;2022-07-04T14:42:39;1.77;;;1.30;;
47529;SDS011;33272;51.922;7.730;2022-07-04T14:45:07;2.77;;;1.40;;
47529;SDS011;33272;51.922;7.730;2022-07-04T14:47:35;4.30;;;1.20;;
47529;SDS011;33272;51.922;7.730;2022-07-04T14:50:02;3.10;;;1.67;;
47529;SDS011;33272;51.922;7.730;2022-07-04T14:52:31;1.67;;;1.47;;
47529;SDS011;33272;51.922;7.730;2022-07-04T14:54:58;3.83;;;1.00;;
47529;SDS011;33272;51.922;7.730;2022-07-04T14:57:25;2.53;;;1.47;;
47529;SDS011;33272;51.922;7.730;2022-07-04T14:59:52;3.27;;;1.37;;
47529;SDS011;33272;51.922;7.730;2022-07-04T15:02:19;2.17;;;1.00;;
47529;SDS011;33272;51.922;7.730;2022-07-04T15:04:46;4.67;;;1.30;;
47529;SDS011;33272;51.922;7.730;2022-07-04T15:07:13;3.33;;;1.40;;